createdAt,value
2018-01-03T00:02:27.291Z,79.60
2018-01-03T00:05:01.050Z,79.30
2018-01-03T00:07:35.113Z,79.60
2018-01-03T00:10:13.057Z,78.70
2018-01-03T00:12:46.874Z,78.50
2018-01-03T00:15:21.967Z,78.50
2018-01-03T00:17:56.444Z,78.30
2018-01-03T00:20:32.282Z,78.10
2018-01-03T00:23:07.568Z,78.60
2018-01-03T00:25:45.072Z,79.20
2018-01-03T00:28:22.634Z,77.80
2018-01-03T00:30:58.831Z,77.80
2018-01-03T00:33:33.012Z,77.80
2018-01-03T00:38:47.151Z,76.70
2018-01-03T00:41:21.129Z,76.60
2018-01-03T00:43:56.105Z,77.60
2018-01-03T00:46:30.952Z,77.30
2018-01-03T00:49:05.401Z,77.70
2018-01-03T00:51:40.564Z,77.70
2018-01-03T00:54:14.600Z,76.70
2018-01-03T00:56:48.516Z,76.90
2018-01-03T00:59:23.805Z,77.10
2018-01-03T01:01:59.156Z,77.90
2018-01-03T01:04:32.945Z,77.20
2018-01-03T01:07:07.664Z,77.90
2018-01-03T01:09:41.639Z,79.60
2018-01-03T01:12:15.752Z,79.60
2018-01-03T01:14:51.652Z,81.00
2018-01-03T01:17:32.715Z,84.00
2018-01-03T01:20:14.316Z,83.90
2018-01-03T01:22:49.599Z,83.90
2018-01-03T01:25:23.290Z,84.00
2018-01-03T01:27:58.160Z,84.80
2018-01-03T01:30:37.995Z,85.60
2018-01-03T01:33:14.438Z,86.20
2018-01-03T01:35:50.955Z,85.20
2018-01-03T01:38:24.729Z,85.30
2018-01-03T01:41:02.541Z,87.10
2018-01-03T01:46:23.675Z,88.20
2018-01-03T01:49:10.780Z,89.10
2018-01-03T01:51:45.621Z,88.80
2018-01-03T01:54:21.888Z,90.10
2018-01-03T01:56:58.331Z,90.00
2018-01-03T01:59:34.067Z,90.50
2018-01-03T02:02:09.269Z,90.60
2018-01-03T02:04:48.091Z,90.90
2018-01-03T02:07:23.916Z,90.80
2018-01-03T02:09:59.506Z,90.90
2018-01-03T02:12:36.834Z,90.90
2018-01-03T02:15:12.411Z,91.40
2018-01-03T02:17:48.956Z,91.60
2018-01-03T02:20:23.504Z,91.90
2018-01-03T02:22:58.108Z,91.80
2018-01-03T02:25:32.038Z,91.90
2018-01-03T02:28:08.817Z,92.30
2018-01-03T02:30:44.529Z,92.40
2018-01-03T02:33:19.289Z,92.70
2018-01-03T02:35:53.168Z,92.90
2018-01-03T02:38:33.116Z,93.10
2018-01-03T02:41:07.334Z,93.20
2018-01-03T02:43:41.862Z,93.60
2018-01-03T02:46:16.819Z,93.60
2018-01-03T02:48:51.105Z,93.60
2018-01-03T02:51:26.005Z,93.60
2018-01-03T02:56:59.846Z,93.70
2018-01-03T02:59:40.798Z,93.60
2018-01-03T03:02:14.737Z,93.60
2018-01-03T03:04:48.688Z,93.60
2018-01-03T03:07:23.523Z,93.40
2018-01-03T03:09:58.536Z,93.30
2018-01-03T03:12:38.519Z,92.90
2018-01-03T03:18:04.147Z,92.60
2018-01-03T03:20:43.928Z,92.70
2018-01-03T03:23:19.219Z,92.80
2018-01-03T03:25:55.141Z,92.60
2018-01-03T03:31:12.726Z,92.90
2018-01-03T03:33:55.263Z,93.00
2018-01-03T03:36:37.876Z,93.40
2018-01-03T03:39:12.570Z,93.30
2018-01-03T03:41:48.512Z,93.40
2018-01-03T03:44:24.324Z,93.60
2018-01-03T03:49:39.366Z,93.60
2018-01-03T03:52:19.052Z,93.70
2018-01-03T03:54:54.550Z,93.50
2018-01-03T03:57:30.501Z,93.70
2018-01-03T04:00:08.518Z,93.70
2018-01-03T04:02:45.528Z,93.70
2018-01-03T04:05:23.630Z,93.90
2018-01-03T04:10:50.215Z,94.20
2018-01-03T04:13:29.596Z,94.30
2018-01-03T04:16:08.668Z,94.30
2018-01-03T04:21:36.510Z,94.40
2018-01-03T04:26:59.796Z,94.50
2018-01-03T04:29:36.669Z,94.60
2018-01-03T04:32:14.897Z,94.60
2018-01-03T04:34:55.639Z,94.70
2018-01-03T04:37:33.965Z,94.70
2018-01-03T04:40:13.816Z,94.70
2018-01-03T04:42:53.762Z,94.70
2018-01-03T04:45:31.022Z,94.50
2018-01-03T04:48:07.275Z,94.60
2018-01-03T04:50:45.156Z,94.60
2018-01-03T04:53:23.986Z,94.50
2018-01-03T04:55:59.743Z,94.70
2018-01-03T04:58:39.098Z,94.80
2018-01-03T05:01:14.657Z,94.70
2018-01-03T05:03:48.559Z,94.50
2018-01-03T05:06:29.185Z,94.40
2018-01-03T05:09:08.860Z,94.20
2018-01-03T05:14:25.633Z,94.40
2018-01-03T05:17:02.978Z,94.50
2018-01-03T05:19:39.584Z,94.70
2018-01-03T05:22:15.276Z,94.70
2018-01-03T05:24:55.389Z,94.60
2018-01-03T05:27:30.817Z,94.80
2018-01-03T05:30:07.210Z,94.70
2018-01-03T05:32:43.045Z,94.80
2018-01-03T05:38:04.804Z,95.10
2018-01-03T05:40:41.651Z,95.10
2018-01-03T05:46:10.781Z,95.30
2018-01-03T05:48:49.540Z,95.50
2018-01-03T05:51:26.898Z,95.70
2018-01-03T05:54:06.348Z,95.80
2018-01-03T05:59:24.801Z,95.90
2018-01-03T06:04:48.215Z,95.50
2018-01-03T06:10:07.681Z,93.70
2018-01-03T06:12:42.493Z,92.60
2018-01-03T06:15:16.848Z,91.70
2018-01-03T06:17:50.712Z,91.10
2018-01-03T06:20:26.180Z,91.00
2018-01-03T06:23:01.844Z,91.10
2018-01-03T06:25:53.538Z,90.10
2018-01-03T06:28:36.063Z,90.10
2018-01-03T06:31:15.239Z,88.10
2018-01-03T06:36:30.634Z,85.30
2018-01-03T06:39:06.377Z,85.30
2018-01-03T06:44:25.385Z,87.50
2018-01-03T06:47:04.782Z,88.10
2018-01-03T06:49:44.484Z,88.10
2018-01-03T06:52:19.053Z,87.60
2018-01-03T06:54:53.568Z,87.60
2018-01-03T06:57:30.232Z,87.70
2018-01-03T07:00:08.876Z,88.10
2018-01-03T07:02:44.252Z,88.10
2018-01-03T07:05:20.572Z,88.50
2018-01-03T07:07:56.433Z,88.10
2018-01-03T07:10:32.402Z,88.80
2018-01-03T07:15:53.813Z,88.00
2018-01-03T07:18:37.204Z,87.90
2018-01-03T07:21:12.904Z,87.30
2018-01-03T07:23:49.671Z,87.30
2018-01-03T07:26:29.276Z,87.60
2018-01-03T07:29:02.929Z,87.00
2018-01-03T07:31:39.305Z,86.70
2018-01-03T07:34:15.227Z,86.10
2018-01-03T07:36:51.482Z,84.60
2018-01-03T07:39:25.177Z,84.00
2018-01-03T07:42:00.109Z,83.90
2018-01-03T07:44:37.962Z,84.20
2018-01-03T07:47:13.982Z,83.70
2018-01-03T07:49:47.559Z,83.40
2018-01-03T07:52:21.327Z,83.90
2018-01-03T07:54:55.132Z,83.90
2018-01-03T07:57:28.917Z,84.90
2018-01-03T08:00:03.897Z,85.30
2018-01-03T08:02:37.635Z,86.30
2018-01-03T08:05:12.189Z,86.20
2018-01-03T08:07:46.604Z,84.60
2018-01-03T08:10:21.659Z,84.80
2018-01-03T08:12:56.852Z,84.60
2018-01-03T08:15:30.628Z,84.50
2018-01-03T08:18:04.452Z,84.00
2018-01-03T08:20:40.716Z,84.20
2018-01-03T08:23:15.521Z,85.00
2018-01-03T08:25:51.916Z,84.90
2018-01-03T08:28:32.727Z,84.10
2018-01-03T08:31:08.176Z,83.70
2018-01-03T08:33:45.972Z,83.20
2018-01-03T08:36:27.379Z,84.30
2018-01-03T08:39:02.804Z,83.70
2018-01-03T08:41:38.227Z,79.40
2018-01-03T08:44:12.358Z,79.90
2018-01-03T08:46:49.023Z,77.60
2018-01-03T08:52:04.988Z,73.80
2018-01-03T08:54:40.530Z,74.80
2018-01-03T08:57:16.871Z,75.80
2018-01-03T08:59:51.312Z,75.90
2018-01-03T09:05:06.402Z,76.80
2018-01-03T09:07:42.472Z,75.00
2018-01-03T09:10:18.005Z,66.20
2018-01-03T09:12:53.132Z,66.20
2018-01-03T09:15:28.343Z,77.50
2018-01-03T09:18:03.124Z,90.80
2018-01-03T09:20:38.868Z,91.10
2018-01-03T09:23:14.756Z,87.70
2018-01-03T09:25:50.098Z,86.70
2018-01-03T09:28:24.104Z,82.60
2018-01-03T09:30:59.582Z,82.50
2018-01-03T09:33:36.387Z,77.70
2018-01-03T09:36:12.956Z,75.80
2018-01-03T09:38:50.547Z,74.50
2018-01-03T09:41:25.304Z,75.40
2018-01-03T09:44:01.597Z,75.40
2018-01-03T09:46:40.387Z,76.40
2018-01-03T09:49:14.735Z,78.30
2018-01-03T09:51:52.090Z,78.20
2018-01-03T09:54:26.565Z,80.50
2018-01-03T09:57:01.558Z,82.50
2018-01-03T09:59:36.801Z,80.50
2018-01-03T10:02:14.636Z,81.20
2018-01-03T10:04:50.853Z,81.60
2018-01-03T10:07:28.244Z,81.30
2018-01-03T10:10:03.722Z,83.30
2018-01-03T10:12:40.149Z,82.60
2018-01-03T10:15:14.427Z,82.20
2018-01-03T10:17:49.972Z,81.60
2018-01-03T10:20:25.498Z,81.60
2018-01-03T10:22:59.115Z,81.80
2018-01-03T10:25:33.426Z,80.30
2018-01-03T10:28:08.977Z,78.30
2018-01-03T10:30:44.396Z,76.20
2018-01-03T10:33:21.681Z,75.90
2018-01-03T10:35:56.176Z,74.10
2018-01-03T10:38:31.068Z,66.40
2018-01-03T10:41:04.831Z,66.20
2018-01-03T10:43:43.763Z,65.10
2018-01-03T10:46:19.692Z,65.60
2018-01-03T10:48:54.469Z,64.40
2018-01-03T10:51:28.316Z,64.20
2018-01-03T10:54:03.018Z,62.00
2018-01-03T10:56:40.246Z,61.80
2018-01-03T10:59:14.487Z,61.70
2018-01-03T11:01:49.089Z,61.40
2018-01-03T11:04:23.654Z,60.30
2018-01-03T11:06:59.856Z,60.10
2018-01-03T11:09:34.612Z,60.00
2018-01-03T11:12:11.756Z,61.20
2018-01-03T11:14:46.006Z,61.20
2018-01-03T11:17:22.260Z,59.10
2018-01-03T11:19:57.551Z,57.50
2018-01-03T11:22:32.395Z,59.00
2018-01-03T11:25:10.349Z,58.10
2018-01-03T11:27:43.985Z,58.20
2018-01-03T11:30:19.721Z,58.90
2018-01-03T11:32:54.389Z,59.00
2018-01-03T11:35:28.024Z,57.60
2018-01-03T11:38:01.702Z,56.80
2018-01-03T11:40:35.583Z,57.60
2018-01-03T11:43:09.380Z,57.60
2018-01-03T11:45:43.358Z,57.60
2018-01-03T11:48:20.594Z,57.70
2018-01-03T11:50:54.747Z,57.70
2018-01-03T11:53:30.301Z,57.00
2018-01-03T11:56:04.003Z,57.90
2018-01-03T11:58:37.756Z,57.10
2018-01-03T12:01:12.988Z,56.40
2018-01-03T12:03:48.467Z,62.70
2018-01-03T12:06:23.899Z,63.20
2018-01-03T12:08:58.316Z,63.80
2018-01-03T12:11:32.007Z,67.50
2018-01-03T12:14:06.541Z,67.30
2018-01-03T12:16:43.429Z,66.90
2018-01-03T12:19:17.336Z,70.50
2018-01-03T12:21:51.792Z,74.30
2018-01-03T12:24:25.436Z,74.30
2018-01-03T12:27:00.870Z,73.70
2018-01-03T12:29:34.926Z,75.20
2018-01-03T12:32:12.313Z,78.40
2018-01-03T12:34:46.182Z,79.50
2018-01-03T12:37:21.410Z,79.40
2018-01-03T12:40:17.506Z,81.40
2018-01-03T12:43:04.034Z,82.80
2018-01-03T12:58:31.767Z,81.90
2018-01-03T13:01:06.606Z,80.10
2018-01-03T13:03:41.969Z,81.50
2018-01-03T13:06:18.424Z,82.10
2018-01-03T13:08:53.888Z,82.80
2018-01-03T13:11:29.702Z,79.20
2018-01-03T13:14:05.609Z,79.60
2018-01-03T13:16:41.441Z,79.40
2018-01-03T13:19:18.017Z,80.00
2018-01-03T13:21:53.038Z,79.20
2018-01-03T13:24:27.358Z,80.50
2018-01-03T13:27:01.358Z,80.70
2018-01-03T13:29:35.529Z,82.30
2018-01-03T13:32:12.197Z,82.10
2018-01-03T13:34:45.913Z,82.10
2018-01-03T13:37:19.689Z,81.40
2018-01-03T13:39:53.509Z,81.40
2018-01-03T13:45:34.121Z,78.30
2018-01-03T13:48:08.652Z,80.30
2018-01-03T13:50:42.496Z,76.90
2018-01-03T13:53:16.719Z,76.20
2018-01-03T13:55:53.195Z,76.40
2018-01-03T13:58:28.014Z,75.80
2018-01-03T14:01:02.504Z,77.00
2018-01-03T14:06:17.779Z,77.70
2018-01-03T14:08:52.477Z,80.30
2018-01-03T14:11:27.169Z,83.50
2018-01-03T14:14:03.544Z,84.80
2018-01-03T14:16:39.152Z,86.20
2018-01-03T14:19:17.151Z,86.20
2018-01-03T14:24:43.745Z,83.80
2018-01-03T14:27:17.396Z,84.70
2018-01-03T14:29:53.378Z,84.20
2018-01-03T14:32:31.553Z,83.20
2018-01-03T14:35:05.948Z,82.80
2018-01-03T14:37:41.263Z,84.10
2018-01-03T14:40:22.275Z,82.70
2018-01-03T14:42:58.063Z,83.90
2018-01-03T14:45:34.106Z,84.00
2018-01-03T14:48:08.891Z,83.80
2018-01-03T14:50:44.273Z,87.30
2018-01-03T14:53:18.978Z,86.90
2018-01-03T14:55:57.403Z,86.20
2018-01-03T14:58:33.088Z,88.30
2018-01-03T15:01:09.589Z,87.10
2018-01-03T15:09:27.354Z,88.70
2018-01-03T15:12:07.851Z,90.80
2018-01-03T15:14:48.313Z,91.30
2018-01-03T15:26:48.789Z,91.80
2018-01-03T16:15:51.064Z,90.00
2018-01-03T16:18:27.701Z,90.40
2018-01-03T16:21:08.387Z,90.00
2018-01-03T16:23:44.026Z,90.10
2018-01-03T16:29:10.328Z,88.10
2018-01-03T16:31:53.684Z,87.80
2018-01-03T16:43:43.985Z,88.20
2018-01-03T16:52:07.412Z,86.20
2018-01-03T17:07:10.336Z,82.00
2018-01-03T17:09:45.807Z,82.40
2018-01-03T17:12:21.057Z,82.30
2018-01-03T17:14:57.095Z,79.20
2018-01-03T17:17:34.425Z,79.30
2018-01-03T17:20:09.661Z,77.40
2018-01-03T17:22:43.464Z,77.10
2018-01-03T17:25:20.830Z,78.00
2018-01-03T17:27:57.415Z,78.40
2018-01-03T17:30:31.193Z,76.40
2018-01-03T17:33:05.668Z,77.10
2018-01-03T17:35:39.414Z,80.00
2018-01-03T17:38:13.031Z,79.90
2018-01-03T17:40:47.710Z,78.20
2018-01-03T17:43:22.027Z,78.10
2018-01-03T17:45:56.318Z,80.00
2018-01-03T17:48:32.705Z,81.60
2018-01-03T17:51:08.778Z,84.90
2018-01-03T17:53:42.820Z,89.30
2018-01-03T18:08:43.350Z,83.40
2018-01-03T18:11:21.174Z,86.00
2018-01-03T18:14:01.746Z,84.20
2018-01-03T18:16:51.225Z,81.30
2018-01-03T18:19:29.298Z,80.20
2018-01-03T18:22:03.858Z,79.90
2018-01-03T18:27:29.464Z,78.10
2018-01-03T18:30:03.810Z,78.00
2018-01-03T18:32:44.106Z,78.60
2018-01-03T18:35:24.261Z,78.60
2018-01-03T18:40:42.954Z,81.60
2018-01-03T18:43:23.463Z,84.10
2018-01-03T18:46:04.283Z,85.80
2018-01-03T18:48:46.501Z,87.80
2018-01-03T18:54:04.557Z,91.40
2018-01-03T18:59:24.626Z,93.00
2018-01-03T19:01:59.724Z,93.40
2018-01-03T19:04:38.916Z,93.80
2018-01-03T19:07:13.525Z,93.80
2018-01-03T19:13:00.925Z,92.20
2018-01-03T19:15:39.103Z,91.00
2018-01-03T19:18:14.519Z,89.90
2018-01-03T19:20:49.017Z,88.50
2018-01-03T19:23:24.799Z,88.30
2018-01-03T19:26:01.315Z,85.50
2018-01-03T19:28:37.535Z,84.60
2018-01-03T19:31:12.169Z,82.30
2018-01-03T19:36:33.272Z,80.90
2018-01-03T19:41:50.926Z,81.50
2018-01-03T19:44:38.452Z,82.30
2018-01-03T19:47:12.095Z,81.30
2018-01-03T19:49:48.093Z,82.60
2018-01-03T19:52:22.723Z,82.60
2018-01-03T19:54:56.454Z,83.20
2018-01-03T19:57:33.514Z,84.60
2018-01-03T20:00:08.196Z,85.00
2018-01-03T20:02:41.934Z,86.40
2018-01-03T20:05:17.439Z,84.80
2018-01-03T20:07:51.781Z,84.40
2018-01-03T20:10:26.193Z,86.20
2018-01-03T20:13:00.104Z,86.40
2018-01-03T20:15:36.476Z,85.30
2018-01-03T20:18:11.215Z,85.10
2018-01-03T20:20:46.235Z,84.10
2018-01-03T20:23:20.884Z,84.00
2018-01-03T20:25:56.473Z,83.50
2018-01-03T20:28:30.260Z,82.60
2018-01-03T20:31:04.004Z,82.00
2018-01-03T20:33:38.997Z,81.40
2018-01-03T20:36:12.767Z,80.90
2018-01-03T20:38:46.460Z,80.40
2018-01-03T20:41:20.244Z,80.10
2018-01-03T20:43:54.015Z,79.80
2018-01-03T20:46:27.738Z,79.90
2018-01-03T20:49:02.859Z,77.60
2018-01-03T20:51:36.564Z,77.40
2018-01-03T20:54:10.625Z,76.30
2018-01-03T20:56:44.669Z,79.40
2018-01-03T20:59:19.388Z,79.80
2018-01-03T21:01:53.171Z,79.80
2018-01-03T21:04:26.826Z,78.00
2018-01-03T21:07:00.534Z,75.70
2018-01-03T21:09:34.272Z,75.00
2018-01-03T21:12:08.393Z,73.80
2018-01-03T21:14:42.046Z,73.50
2018-01-03T21:17:15.781Z,73.70
2018-01-03T21:19:49.548Z,74.50
2018-01-03T21:22:27.272Z,71.80
2018-01-03T21:25:01.650Z,74.00
2018-01-03T21:27:35.333Z,73.90
2018-01-03T21:30:08.997Z,74.40
2018-01-03T21:32:42.713Z,74.50
2018-01-03T21:35:16.733Z,73.30
2018-01-03T21:37:53.015Z,73.00
2018-01-03T21:40:27.703Z,74.60
2018-01-03T21:43:02.180Z,73.30
2018-01-03T21:45:36.788Z,74.10
2018-01-03T21:48:10.491Z,73.40
2018-01-03T21:50:44.433Z,74.50
2018-01-03T21:53:18.164Z,75.50
2018-01-03T21:55:52.189Z,76.40
2018-01-03T21:58:26.947Z,77.30
2018-01-03T22:01:03.360Z,78.20
2018-01-03T22:03:40.205Z,79.90
2018-01-03T22:06:14.883Z,81.90
2018-01-03T22:08:50.453Z,87.80
2018-01-03T22:11:25.950Z,87.70
2018-01-03T22:14:05.605Z,88.80
2018-01-03T22:16:41.768Z,90.30
2018-01-03T22:19:21.252Z,90.90
2018-01-03T22:21:57.400Z,90.80
2018-01-03T22:24:32.740Z,90.90
2018-01-03T22:27:07.225Z,91.20
2018-01-03T22:29:40.992Z,91.30
2018-01-03T22:32:16.688Z,91.00
2018-01-03T22:34:54.619Z,91.00
2018-01-03T22:37:30.263Z,90.70
2018-01-03T22:40:09.817Z,90.20
2018-01-03T22:42:45.729Z,90.30
2018-01-03T22:45:20.284Z,91.00
2018-01-03T22:47:55.160Z,90.20
2018-01-03T22:50:32.085Z,90.80
2018-01-03T22:53:08.978Z,90.20
2018-01-03T22:58:25.291Z,90.60
2018-01-03T23:01:01.247Z,90.10
2018-01-03T23:03:35.836Z,90.10
2018-01-03T23:06:12.803Z,89.70
2018-01-03T23:08:47.077Z,87.30
2018-01-03T23:11:21.680Z,86.50
2018-01-03T23:13:59.006Z,84.60
2018-01-03T23:16:33.877Z,82.50
2018-01-03T23:19:08.725Z,80.00
2018-01-03T23:21:43.866Z,80.40
2018-01-03T23:24:19.484Z,80.20
2018-01-03T23:26:56.116Z,80.50
2018-01-03T23:29:31.153Z,78.90
2018-01-03T23:32:04.834Z,79.00
2018-01-03T23:34:40.400Z,79.00
2018-01-03T23:37:14.212Z,78.30
2018-01-03T23:39:48.673Z,79.40
2018-01-03T23:42:23.935Z,78.80
2018-01-03T23:44:57.717Z,78.30
2018-01-03T23:47:32.468Z,77.30
2018-01-03T23:50:06.298Z,77.00
2018-01-03T23:52:40.285Z,79.70
2018-01-03T23:55:15.660Z,81.20
2018-01-03T23:57:49.508Z,82.40
